sensor_id;sensor_type;location;lat;lon;timestamp;pressure;altitude;pressure_sealevel;temperature;humidity
22755;BME280;11544;42.020;23.094;2022-07-12T00:02:07;97644.28;;;13.93;69.64
22755;BME280;11544;42.020;23.094;2022-07-12T00:04:33;97634.97;;;13.86;69.96
22755;BME280;11544;42.020;23.094;2022-07-12T00:06:59;97642.19;;;13.81;70.31
22755;BME280;11544;42.020;23.094;2022-07-12T00:09:24;97644.59;;;13.43;70.96
22755;BME280;11544;42.020;23.094;2022-07-12T00:11:50;97647.38;;;13.60;71.15
22755;BME280;11544;42.020;23.094;2022-07-12T00:14:16;97652.97;;;13.51;71.70
22755;BME280;11544;42.020;23.094;2022-07-12T00:16:41;97653.59;;;12.90;73.35
22755;BME280;11544;42.020;23.094;2022-07-12T00:19:07;97652.09;;;13.06;73.88
22755;BME280;11544;42.020;23.094;2022-07-12T00:21:34;97647.94;;;13.23;72.88
22755;BME280;11544;42.020;23.094;2022-07-12T00:24:00;97646.63;;;13.12;73.07
22755;BME280;11544;42.020;23.094;2022-07-12T00:26:25;97650.44;;;13.04;73.02
22755;BME280;11544;42.020;23.094;2022-07-12T00:28:52;97648.16;;;13.18;73.43
22755;BME280;11544;42.020;23.094;2022-07-12T00:31:18;97650.63;;;12.99;73.85
22755;BME280;11544;42.020;23.094;2022-07-12T00:33:44;97648.16;;;13.18;73.19
22755;BME280;11544;42.020;23.094;2022-07-12T00:36:10;97638.91;;;13.31;72.67
22755;BME280;11544;42.020;23.094;2022-07-12T00:38:35;97646.25;;;13.22;72.34
22755;BME280;11544;42.020;23.094;2022-07-12T00:41:01;97641.53;;;13.53;71.57
22755;BME280;11544;42.020;23.094;2022-07-12T00:43:27;97643.63;;;13.45;71.69
22755;BME280;11544;42.020;23.094;2022-07-12T00:45:53;97637.94;;;13.34;71.11
22755;BME280;11544;42.020;23.094;2022-07-12T00:48:19;97643.09;;;13.13;71.73
22755;BME280;11544;42.020;23.094;2022-07-12T00:50:48;97646.78;;;13.08;72.33
22755;BME280;11544;42.020;23.094;2022-07-12T00:53:14;97650.72;;;12.96;73.20
22755;BME280;11544;42.020;23.094;2022-07-12T00:55:42;97646.78;;;13.08;73.49
22755;BME280;11544;42.020;23.094;2022-07-12T00:58:07;97648.25;;;12.93;73.46
22755;BME280;11544;42.020;23.094;2022-07-12T01:00:33;97645.75;;;12.90;73.98
22755;BME280;11544;42.020;23.094;2022-07-12T01:03:01;97646.00;;;13.06;74.02
22755;BME280;11544;42.020;23.094;2022-07-12T01:05:28;97635.53;;;13.06;74.03
22755;BME280;11544;42.020;23.094;2022-07-12T01:07:55;97631.22;;;13.27;73.61
22755;BME280;11544;42.020;23.094;2022-07-12T01:10:20;97641.41;;;12.89;73.68
22755;BME280;11544;42.020;23.094;2022-07-12T01:12:46;97645.13;;;12.83;74.29
22755;BME280;11544;42.020;23.094;2022-07-12T01:15:12;97640.25;;;12.49;74.91
22755;BME280;11544;42.020;23.094;2022-07-12T01:17:38;97638.13;;;12.60;76.34
22755;BME280;11544;42.020;23.094;2022-07-12T01:20:05;97643.22;;;12.40;76.65
22755;BME280;11544;42.020;23.094;2022-07-12T01:22:34;97632.50;;;12.47;76.46
22755;BME280;11544;42.020;23.094;2022-07-12T01:25:01;97639.97;;;12.80;76.02
22755;BME280;11544;42.020;23.094;2022-07-12T01:27:28;97632.88;;;12.84;74.94
22755;BME280;11544;42.020;23.094;2022-07-12T01:29:55;97634.34;;;12.44;76.33
22755;BME280;11544;42.020;23.094;2022-07-12T01:32:21;97632.88;;;12.60;75.28
22755;BME280;11544;42.020;23.094;2022-07-12T01:34:58;97627.19;;;12.49;75.63
22755;BME280;11544;42.020;23.094;2022-07-12T01:37:25;97633.97;;;12.55;75.41
22755;BME280;11544;42.020;23.094;2022-07-12T01:39:53;97631.66;;;12.22;76.49
22755;BME280;11544;42.020;23.094;2022-07-12T01:42:20;97631.75;;;12.44;75.83
22755;BME280;11544;42.020;23.094;2022-07-12T01:44:48;97632.19;;;12.32;75.88
22755;BME280;11544;42.020;23.094;2022-07-12T01:47:15;97637.47;;;12.54;75.46
22755;BME280;11544;42.020;23.094;2022-07-12T01:49:41;97628.84;;;12.52;75.27
22755;BME280;11544;42.020;23.094;2022-07-12T01:52:07;97631.63;;;12.47;75.03
22755;BME280;11544;42.020;23.094;2022-07-12T01:54:33;97631.19;;;12.59;74.95
22755;BME280;11544;42.020;23.094;2022-07-12T01:56:59;97632.22;;;12.55;75.12
22755;BME280;11544;42.020;23.094;2022-07-12T01:59:25;97633.19;;;12.76;74.55
22755;BME280;11544;42.020;23.094;2022-07-12T02:01:51;97635.09;;;12.47;74.68
22755;BME280;11544;42.020;23.094;2022-07-12T02:04:18;97631.22;;;12.34;75.75
22755;BME280;11544;42.020;23.094;2022-07-12T02:06:45;97628.28;;;12.67;75.12
22755;BME280;11544;42.020;23.094;2022-07-12T02:09:11;97632.03;;;12.60;75.27
22755;BME280;11544;42.020;23.094;2022-07-12T02:11:37;97633.56;;;12.89;73.99
22755;BME280;11544;42.020;23.094;2022-07-12T02:14:03;97631.25;;;12.81;73.72
22755;BME280;11544;42.020;23.094;2022-07-12T02:16:29;97634.75;;;12.33;75.22
22755;BME280;11544;42.020;23.094;2022-07-12T02:18:55;97632.59;;;12.44;75.95
22755;BME280;11544;42.020;23.094;2022-07-12T02:21:20;97631.53;;;12.50;75.42
22755;BME280;11544;42.020;23.094;2022-07-12T02:23:46;97636.63;;;12.53;75.05
22755;BME280;11544;42.020;23.094;2022-07-12T02:26:11;97632.56;;;12.69;75.10
22755;BME280;11544;42.020;23.094;2022-07-12T02:28:37;97635.69;;;12.31;75.08
22755;BME280;11544;42.020;23.094;2022-07-12T02:31:03;97636.88;;;11.70;77.08
22755;BME280;11544;42.020;23.094;2022-07-12T02:33:29;97654.09;;;11.76;78.57
22755;BME280;11544;42.020;23.094;2022-07-12T02:35:54;97652.50;;;11.98;78.27
22755;BME280;11544;42.020;23.094;2022-07-12T02:38:20;97652.44;;;12.00;78.05
22755;BME280;11544;42.020;23.094;2022-07-12T02:40:47;97651.75;;;11.68;79.03
22755;BME280;11544;42.020;23.094;2022-07-12T02:43:25;97652.44;;;11.73;79.37
22755;BME280;11544;42.020;23.094;2022-07-12T02:45:52;97658.84;;;11.91;79.44
22755;BME280;11544;42.020;23.094;2022-07-12T02:48:19;97657.72;;;11.72;79.79
22755;BME280;11544;42.020;23.094;2022-07-12T02:50:45;97652.31;;;11.76;79.56
22755;BME280;11544;42.020;23.094;2022-07-12T02:53:11;97657.41;;;11.81;79.38
22755;BME280;11544;42.020;23.094;2022-07-12T02:55:38;97661.19;;;11.99;78.49
22755;BME280;11544;42.020;23.094;2022-07-12T02:58:04;97669.06;;;11.71;78.40
22755;BME280;11544;42.020;23.094;2022-07-12T03:00:34;97661.78;;;11.54;79.57
22755;BME280;11544;42.020;23.094;2022-07-12T03:03:01;97666.84;;;11.58;80.02
22755;BME280;11544;42.020;23.094;2022-07-12T03:05:27;97677.16;;;11.63;79.46
22755;BME280;11544;42.020;23.094;2022-07-12T03:07:53;97671.28;;;11.28;80.75
22755;BME280;11544;42.020;23.094;2022-07-12T03:10:19;97673.84;;;11.58;80.38
22755;BME280;11544;42.020;23.094;2022-07-12T03:12:45;97681.84;;;11.52;80.69
22755;BME280;11544;42.020;23.094;2022-07-12T03:15:11;97678.41;;;11.78;80.44
22755;BME280;11544;42.020;23.094;2022-07-12T03:17:37;97689.22;;;11.67;80.68
22755;BME280;11544;42.020;23.094;2022-07-12T03:20:04;97681.44;;;11.92;78.97
22755;BME280;11544;42.020;23.094;2022-07-12T03:22:34;97678.47;;;12.03;78.54
22755;BME280;11544;42.020;23.094;2022-07-12T03:25:00;97688.53;;;11.89;79.04
22755;BME280;11544;42.020;23.094;2022-07-12T03:27:26;97678.41;;;12.04;78.41
22755;BME280;11544;42.020;23.094;2022-07-12T03:29:51;97680.19;;;12.29;77.99
22755;BME280;11544;42.020;23.094;2022-07-12T03:32:17;97683.38;;;12.37;77.27
22755;BME280;11544;42.020;23.094;2022-07-12T03:34:44;97675.41;;;12.65;75.84
22755;BME280;11544;42.020;23.094;2022-07-12T03:37:10;97685.31;;;12.32;76.06
22755;BME280;11544;42.020;23.094;2022-07-12T03:39:35;97679.50;;;12.49;75.52
22755;BME280;11544;42.020;23.094;2022-07-12T03:42:01;97689.38;;;12.41;76.11
22755;BME280;11544;42.020;23.094;2022-07-12T03:44:27;97694.25;;;12.26;76.92
22755;BME280;11544;42.020;23.094;2022-07-12T03:46:56;97700.09;;;12.58;76.61
22755;BME280;11544;42.020;23.094;2022-07-12T03:49:21;97691.50;;;12.55;74.83
22755;BME280;11544;42.020;23.094;2022-07-12T03:51:47;97697.59;;;12.30;76.19
22755;BME280;11544;42.020;23.094;2022-07-12T03:54:13;97693.75;;;12.40;77.23
22755;BME280;11544;42.020;23.094;2022-07-12T03:56:38;97693.91;;;12.84;76.96
22755;BME280;11544;42.020;23.094;2022-07-12T03:59:23;97694.94;;;12.57;76.29
22755;BME280;11544;42.020;23.094;2022-07-12T04:01:49;97706.13;;;12.60;78.14
22755;BME280;11544;42.020;23.094;2022-07-12T04:04:14;97700.41;;;12.98;76.01
22755;BME280;11544;42.020;23.094;2022-07-12T04:06:40;97703.56;;;13.06;75.69
22755;BME280;11544;42.020;23.094;2022-07-12T04:09:06;97699.59;;;12.72;75.17
22755;BME280;11544;42.020;23.094;2022-07-12T04:11:32;97697.53;;;12.80;75.85
22755;BME280;11544;42.020;23.094;2022-07-12T04:13:58;97694.13;;;13.25;74.35
22755;BME280;11544;42.020;23.094;2022-07-12T04:16:23;97689.53;;;15.18;68.28
22755;BME280;11544;42.020;23.094;2022-07-12T04:18:49;97684.28;;;15.92;64.74
22755;BME280;11544;42.020;23.094;2022-07-12T04:21:15;97686.72;;;15.78;63.51
22755;BME280;11544;42.020;23.094;2022-07-12T04:23:41;97694.84;;;14.97;64.90
22755;BME280;11544;42.020;23.094;2022-07-12T04:26:07;97693.28;;;15.50;64.51
22755;BME280;11544;42.020;23.094;2022-07-12T04:28:34;97691.94;;;16.14;62.69
22755;BME280;11544;42.020;23.094;2022-07-12T04:31:00;97708.63;;;15.21;65.72
22755;BME280;11544;42.020;23.094;2022-07-12T04:33:26;97689.56;;;17.11;60.21
22755;BME280;11544;42.020;23.094;2022-07-12T04:35:51;97689.81;;;17.54;58.73
22755;BME280;11544;42.020;23.094;2022-07-12T04:38:17;97692.53;;;16.54;61.75
22755;BME280;11544;42.020;23.094;2022-07-12T04:40:43;97680.84;;;18.04;57.08
22755;BME280;11544;42.020;23.094;2022-07-12T04:43:11;97692.47;;;16.89;59.09
22755;BME280;11544;42.020;23.094;2022-07-12T04:45:37;97696.06;;;16.88;59.47
22755;BME280;11544;42.020;23.094;2022-07-12T04:48:03;97692.41;;;16.05;61.99
22755;BME280;11544;42.020;23.094;2022-07-12T04:50:29;97687.59;;;16.99;59.17
22755;BME280;11544;42.020;23.094;2022-07-12T04:52:54;97689.88;;;17.05;60.15
22755;BME280;11544;42.020;23.094;2022-07-12T04:55:20;97690.41;;;17.59;57.62
22755;BME280;11544;42.020;23.094;2022-07-12T04:57:46;97695.09;;;17.38;59.19
22755;BME280;11544;42.020;23.094;2022-07-12T05:00:12;97685.28;;;18.48;54.83
22755;BME280;11544;42.020;23.094;2022-07-12T05:02:38;97685.44;;;19.18;53.44
22755;BME280;11544;42.020;23.094;2022-07-12T05:05:04;97692.06;;;18.97;52.87
22755;BME280;11544;42.020;23.094;2022-07-12T05:07:30;97691.31;;;18.95;53.94
22755;BME280;11544;42.020;23.094;2022-07-12T05:09:56;97693.81;;;17.45;57.69
22755;BME280;11544;42.020;23.094;2022-07-12T05:12:22;97690.81;;;18.74;55.08
22755;BME280;11544;42.020;23.094;2022-07-12T05:14:48;97688.56;;;18.82;52.88
22755;BME280;11544;42.020;23.094;2022-07-12T05:17:14;97690.47;;;18.35;54.13
22755;BME280;11544;42.020;23.094;2022-07-12T05:19:40;97685.19;;;18.35;53.67
22755;BME280;11544;42.020;23.094;2022-07-12T05:22:05;97683.28;;;18.82;53.60
22755;BME280;11544;42.020;23.094;2022-07-12T05:24:31;97675.44;;;20.32;49.33
22755;BME280;11544;42.020;23.094;2022-07-12T05:26:57;97676.97;;;19.55;50.36
22755;BME280;11544;42.020;23.094;2022-07-12T05:29:23;97684.63;;;18.59;52.12
22755;BME280;11544;42.020;23.094;2022-07-12T05:31:48;97675.44;;;20.32;47.95
22755;BME280;11544;42.020;23.094;2022-07-12T05:34:14;97679.59;;;18.40;52.52
22755;BME280;11544;42.020;23.094;2022-07-12T05:36:40;97669.25;;;19.52;51.68
22755;BME280;11544;42.020;23.094;2022-07-12T05:39:06;97664.50;;;19.84;51.12
22755;BME280;11544;42.020;23.094;2022-07-12T05:41:32;97676.78;;;18.88;54.66
22755;BME280;11544;42.020;23.094;2022-07-12T05:43:58;97662.59;;;20.26;50.59
22755;BME280;11544;42.020;23.094;2022-07-12T05:46:23;97663.66;;;20.23;50.08
22755;BME280;11544;42.020;23.094;2022-07-12T05:48:49;97656.19;;;20.03;51.22
22755;BME280;11544;42.020;23.094;2022-07-12T05:51:15;97662.47;;;19.60;50.61
22755;BME280;11544;42.020;23.094;2022-07-12T05:53:59;97663.53;;;20.12;49.09
22755;BME280;11544;42.020;23.094;2022-07-12T05:56:25;97657.25;;;19.46;51.71
22755;BME280;11544;42.020;23.094;2022-07-12T05:58:51;97643.56;;;19.81;50.31
22755;BME280;11544;42.020;23.094;2022-07-12T06:01:17;97658.31;;;19.98;50.93
22755;BME280;11544;42.020;23.094;2022-07-12T06:03:44;97652.84;;;19.74;50.96
22755;BME280;11544;42.020;23.094;2022-07-12T06:06:10;97657.03;;;20.69;48.16
22755;BME280;11544;42.020;23.094;2022-07-12T06:08:35;97664.75;;;19.11;50.77
22755;BME280;11544;42.020;23.094;2022-07-12T06:11:01;97645.31;;;20.07;50.07
22755;BME280;11544;42.020;23.094;2022-07-12T06:13:27;97640.72;;;20.88;47.21
22755;BME280;11544;42.020;23.094;2022-07-12T06:15:54;97643.75;;;20.30;49.79
22755;BME280;11544;42.020;23.094;2022-07-12T06:18:21;97638.97;;;21.12;46.80
22755;BME280;11544;42.020;23.094;2022-07-12T06:20:47;97647.56;;;19.74;49.91
22755;BME280;11544;42.020;23.094;2022-07-12T06:23:13;97648.16;;;20.04;48.90
22755;BME280;11544;42.020;23.094;2022-07-12T06:25:40;97649.34;;;18.90;51.57
22755;BME280;11544;42.020;23.094;2022-07-12T06:28:08;97638.19;;;19.95;49.96
22755;BME280;11544;42.020;23.094;2022-07-12T06:30:34;97633.41;;;20.53;49.39
22755;BME280;11544;42.020;23.094;2022-07-12T06:32:59;97633.81;;;20.98;47.59
22755;BME280;11544;42.020;23.094;2022-07-12T06:35:25;97626.94;;;21.45;45.84
22755;BME280;11544;42.020;23.094;2022-07-12T06:37:51;97632.44;;;21.05;47.39
22755;BME280;11544;42.020;23.094;2022-07-12T06:40:17;97623.75;;;21.88;44.97
22755;BME280;11544;42.020;23.094;2022-07-12T06:42:43;97622.31;;;20.61;47.55
22755;BME280;11544;42.020;23.094;2022-07-12T06:45:09;97620.81;;;20.57;49.25
22755;BME280;11544;42.020;23.094;2022-07-12T06:47:35;97621.00;;;21.42;46.02
22755;BME280;11544;42.020;23.094;2022-07-12T06:50:01;97620.06;;;20.93;48.35
22755;BME280;11544;42.020;23.094;2022-07-12T06:52:27;97624.19;;;20.84;48.57
22755;BME280;11544;42.020;23.094;2022-07-12T06:54:53;97623.84;;;21.87;44.43
22755;BME280;11544;42.020;23.094;2022-07-12T06:57:19;97623.41;;;20.95;48.64
22755;BME280;11544;42.020;23.094;2022-07-12T06:59:44;97614.19;;;21.38;46.73
22755;BME280;11544;42.020;23.094;2022-07-12T07:02:10;97617.88;;;21.96;45.47
22755;BME280;11544;42.020;23.094;2022-07-12T07:04:36;97607.88;;;22.11;44.87
22755;BME280;11544;42.020;23.094;2022-07-12T07:07:02;97607.00;;;21.88;45.68
22755;BME280;11544;42.020;23.094;2022-07-12T07:09:27;97602.81;;;21.72;44.86
22755;BME280;11544;42.020;23.094;2022-07-12T07:11:53;97601.06;;;21.84;44.18
22755;BME280;11544;42.020;23.094;2022-07-12T07:14:19;97605.78;;;20.57;45.75
22755;BME280;11544;42.020;23.094;2022-07-12T07:16:45;97595.22;;;21.44;45.32
22755;BME280;11544;42.020;23.094;2022-07-12T07:19:10;97603.66;;;20.37;46.74
22755;BME280;11544;42.020;23.094;2022-07-12T07:21:36;97588.13;;;21.80;44.93
22755;BME280;11544;42.020;23.094;2022-07-12T07:24:02;97587.25;;;22.50;44.23
22755;BME280;11544;42.020;23.094;2022-07-12T07:26:30;97574.16;;;22.24;42.69
22755;BME280;11544;42.020;23.094;2022-07-12T07:28:55;97573.56;;;22.77;41.52
22755;BME280;11544;42.020;23.094;2022-07-12T07:31:40;97572.13;;;22.84;43.15
22755;BME280;11544;42.020;23.094;2022-07-12T07:34:06;97563.69;;;23.45;40.71
22755;BME280;11544;42.020;23.094;2022-07-12T07:36:31;97567.31;;;22.89;40.04
22755;BME280;11544;42.020;23.094;2022-07-12T07:38:58;97551.84;;;22.83;38.73
22755;BME280;11544;42.020;23.094;2022-07-12T07:41:24;97560.53;;;22.96;37.60
22755;BME280;11544;42.020;23.094;2022-07-12T07:43:50;97550.25;;;23.14;37.92
22755;BME280;11544;42.020;23.094;2022-07-12T07:46:16;97550.16;;;22.82;38.58
22755;BME280;11544;42.020;23.094;2022-07-12T07:48:42;97545.56;;;23.07;38.61
22755;BME280;11544;42.020;23.094;2022-07-12T07:51:08;97548.59;;;23.02;38.35
22755;BME280;11544;42.020;23.094;2022-07-12T07:53:33;97554.16;;;22.99;36.88
22755;BME280;11544;42.020;23.094;2022-07-12T07:55:59;97560.50;;;23.19;38.24
22755;BME280;11544;42.020;23.094;2022-07-12T07:58:25;97549.19;;;23.06;37.14
22755;BME280;11544;42.020;23.094;2022-07-12T08:00:51;97545.75;;;23.26;36.78
22755;BME280;11544;42.020;23.094;2022-07-12T08:03:21;97549.16;;;23.17;36.30
22755;BME280;11544;42.020;23.094;2022-07-12T08:05:47;97553.25;;;23.21;36.27
22755;BME280;11544;42.020;23.094;2022-07-12T08:08:14;97555.22;;;23.51;36.16
22755;BME280;11544;42.020;23.094;2022-07-12T08:10:39;97547.34;;;23.50;36.53
22755;BME280;11544;42.020;23.094;2022-07-12T08:13:05;97552.81;;;23.80;35.97
22755;BME280;11544;42.020;23.094;2022-07-12T08:15:31;97542.91;;;23.71;34.80
22755;BME280;11544;42.020;23.094;2022-07-12T08:17:57;97543.00;;;24.02;34.97
22755;BME280;11544;42.020;23.094;2022-07-12T08:20:23;97537.00;;;24.30;34.70
22755;BME280;11544;42.020;23.094;2022-07-12T08:22:50;97544.81;;;23.80;34.69
22755;BME280;11544;42.020;23.094;2022-07-12T08:25:15;97530.81;;;23.99;34.74
22755;BME280;11544;42.020;23.094;2022-07-12T08:27:42;97528.44;;;24.27;34.75
22755;BME280;11544;42.020;23.094;2022-07-12T08:30:08;97524.19;;;23.94;34.42
22755;BME280;11544;42.020;23.094;2022-07-12T08:32:34;97527.28;;;23.78;35.38
22755;BME280;11544;42.020;23.094;2022-07-12T08:35:00;97518.53;;;24.08;33.67
22755;BME280;11544;42.020;23.094;2022-07-12T08:37:26;97525.06;;;24.25;34.05
22755;BME280;11544;42.020;23.094;2022-07-12T08:39:52;97524.09;;;24.57;34.12
22755;BME280;11544;42.020;23.094;2022-07-12T08:42:18;97521.16;;;24.50;32.75
22755;BME280;11544;42.020;23.094;2022-07-12T08:44:56;97523.13;;;24.48;32.96
22755;BME280;11544;42.020;23.094;2022-07-12T08:47:22;97527.72;;;24.25;34.12
22755;BME280;11544;42.020;23.094;2022-07-12T08:52:41;97522.38;;;23.62;31.58
22755;BME280;11544;42.020;23.094;2022-07-12T08:55:18;97523.91;;;24.18;31.61
22755;BME280;11544;42.020;23.094;2022-07-12T08:57:45;97519.38;;;24.39;31.60
22755;BME280;11544;42.020;23.094;2022-07-12T09:00:11;97527.09;;;24.42;32.01
22755;BME280;11544;42.020;23.094;2022-07-12T09:02:56;97527.59;;;24.88;29.88
22755;BME280;11544;42.020;23.094;2022-07-12T09:05:24;97521.59;;;24.34;31.39
22755;BME280;11544;42.020;23.094;2022-07-12T09:07:50;97516.19;;;24.45;33.12
22755;BME280;11544;42.020;23.094;2022-07-12T09:10:17;97505.16;;;24.50;31.13
22755;BME280;11544;42.020;23.094;2022-07-12T09:12:44;97516.69;;;24.60;31.11
22755;BME280;11544;42.020;23.094;2022-07-12T09:20:26;97506.78;;;24.72;30.49
22755;BME280;11544;42.020;23.094;2022-07-12T09:22:56;97511.22;;;25.02;31.04
22755;BME280;11544;42.020;23.094;2022-07-12T09:25:23;97503.44;;;24.80;31.85
22755;BME280;11544;42.020;23.094;2022-07-12T09:27:54;97510.44;;;24.71;29.81
22755;BME280;11544;42.020;23.094;2022-07-12T09:30:22;97497.75;;;25.13;29.54
22755;BME280;11544;42.020;23.094;2022-07-12T09:32:53;97493.84;;;25.18;29.37
22755;BME280;11544;42.020;23.094;2022-07-12T09:35:39;97502.63;;;24.99;30.45
22755;BME280;11544;42.020;23.094;2022-07-12T09:38:29;97497.72;;;24.94;30.84
22755;BME280;11544;42.020;23.094;2022-07-12T09:40:55;97494.19;;;24.84;31.04
22755;BME280;11544;42.020;23.094;2022-07-12T09:43:22;97496.66;;;25.45;30.40
22755;BME280;11544;42.020;23.094;2022-07-12T09:45:48;97498.06;;;25.20;29.10
22755;BME280;11544;42.020;23.094;2022-07-12T09:48:15;97490.50;;;25.25;29.59
22755;BME280;11544;42.020;23.094;2022-07-12T09:50:48;97483.88;;;25.20;29.39
22755;BME280;11544;42.020;23.094;2022-07-12T09:53:20;97488.06;;;25.12;29.85
22755;BME280;11544;42.020;23.094;2022-07-12T09:55:49;97485.56;;;24.30;30.32
22755;BME280;11544;42.020;23.094;2022-07-12T09:58:21;97489.66;;;23.82;31.47
22755;BME280;11544;42.020;23.094;2022-07-12T10:00:50;97490.50;;;24.75;30.41
22755;BME280;11544;42.020;23.094;2022-07-12T10:03:19;97491.66;;;24.92;31.39
22755;BME280;11544;42.020;23.094;2022-07-12T10:05:45;97480.88;;;25.03;30.31
22755;BME280;11544;42.020;23.094;2022-07-12T10:08:12;97483.34;;;25.26;30.33
22755;BME280;11544;42.020;23.094;2022-07-12T10:10:38;97471.06;;;25.04;30.98
22755;BME280;11544;42.020;23.094;2022-07-12T10:13:04;97478.53;;;25.49;31.08
22755;BME280;11544;42.020;23.094;2022-07-12T10:15:30;97478.84;;;25.36;31.20
22755;BME280;11544;42.020;23.094;2022-07-12T10:17:56;97467.06;;;24.59;32.03
22755;BME280;11544;42.020;23.094;2022-07-12T10:20:25;97470.13;;;25.24;31.34
22755;BME280;11544;42.020;23.094;2022-07-12T10:25:40;97459.75;;;25.31;31.92
22755;BME280;11544;42.020;23.094;2022-07-12T10:28:06;97451.00;;;25.68;31.26
22755;BME280;11544;42.020;23.094;2022-07-12T10:30:41;97457.47;;;25.75;32.93
22755;BME280;11544;42.020;23.094;2022-07-12T10:33:15;97450.31;;;25.37;32.84
22755;BME280;11544;42.020;23.094;2022-07-12T10:38:26;97447.63;;;25.66;33.11
22755;BME280;11544;42.020;23.094;2022-07-12T10:40:53;97446.69;;;25.38;32.08
22755;BME280;11544;42.020;23.094;2022-07-12T10:46:17;97441.91;;;25.22;33.33
22755;BME280;11544;42.020;23.094;2022-07-12T10:48:46;97430.81;;;25.36;32.74
22755;BME280;11544;42.020;23.094;2022-07-12T10:51:14;97434.59;;;25.43;31.25
22755;BME280;11544;42.020;23.094;2022-07-12T10:53:40;97416.53;;;25.74;31.49
22755;BME280;11544;42.020;23.094;2022-07-12T10:56:23;97429.06;;;25.74;30.15
22755;BME280;11544;42.020;23.094;2022-07-12T10:58:53;97435.31;;;25.35;29.60
22755;BME280;11544;42.020;23.094;2022-07-12T11:01:24;97428.78;;;25.67;30.67
22755;BME280;11544;42.020;23.094;2022-07-12T11:03:54;97436.09;;;25.75;30.61
22755;BME280;11544;42.020;23.094;2022-07-12T11:06:25;97429.91;;;25.65;31.15
22755;BME280;11544;42.020;23.094;2022-07-12T11:08:58;97429.88;;;25.84;32.12
22755;BME280;11544;42.020;23.094;2022-07-12T11:11:30;97431.03;;;25.72;30.84
22755;BME280;11544;42.020;23.094;2022-07-12T11:13:56;97423.56;;;25.95;32.20
22755;BME280;11544;42.020;23.094;2022-07-12T11:16:23;97428.13;;;25.36;32.21
22755;BME280;11544;42.020;23.094;2022-07-12T11:18:50;97420.50;;;25.80;31.69
22755;BME280;11544;42.020;23.094;2022-07-12T11:21:17;97425.59;;;25.05;31.95
22755;BME280;11544;42.020;23.094;2022-07-12T11:23:43;97414.78;;;25.46;31.12
22755;BME280;11544;42.020;23.094;2022-07-12T11:26:11;97415.78;;;25.45;32.83
22755;BME280;11544;42.020;23.094;2022-07-12T11:28:37;97416.03;;;25.61;31.50
22755;BME280;11544;42.020;23.094;2022-07-12T11:31:05;97417.31;;;25.47;31.02
22755;BME280;11544;42.020;23.094;2022-07-12T11:33:37;97420.66;;;25.01;32.04
22755;BME280;11544;42.020;23.094;2022-07-12T11:36:05;97409.88;;;25.02;32.24
22755;BME280;11544;42.020;23.094;2022-07-12T11:38:32;97404.56;;;25.31;31.99
22755;BME280;11544;42.020;23.094;2022-07-12T11:40:59;97385.34;;;25.85;31.81
22755;BME280;11544;42.020;23.094;2022-07-12T11:43:26;97402.63;;;25.81;31.30
22755;BME280;11544;42.020;23.094;2022-07-12T11:45:52;97393.59;;;25.44;31.64
22755;BME280;11544;42.020;23.094;2022-07-12T11:48:19;97403.38;;;24.76;32.42
22755;BME280;11544;42.020;23.094;2022-07-12T11:50:47;97393.41;;;25.55;32.36
22755;BME280;11544;42.020;23.094;2022-07-12T11:53:24;97382.56;;;25.67;31.15
22755;BME280;11544;42.020;23.094;2022-07-12T11:55:52;97388.91;;;25.66;31.39
22755;BME280;11544;42.020;23.094;2022-07-12T11:58:19;97379.34;;;25.73;32.01
22755;BME280;11544;42.020;23.094;2022-07-12T12:00:47;97367.50;;;25.85;32.25
22755;BME280;11544;42.020;23.094;2022-07-12T12:03:14;97364.94;;;25.84;31.40
22755;BME280;11544;42.020;23.094;2022-07-12T12:05:43;97371.91;;;25.67;31.06
22755;BME280;11544;42.020;23.094;2022-07-12T12:08:15;97373.03;;;25.64;30.42
22755;BME280;11544;42.020;23.094;2022-07-12T12:10:43;97375.47;;;25.38;31.02
22755;BME280;11544;42.020;23.094;2022-07-12T12:13:17;97368.94;;;25.80;30.27
22755;BME280;11544;42.020;23.094;2022-07-12T12:16:00;97372.69;;;25.40;30.61
22755;BME280;11544;42.020;23.094;2022-07-12T12:18:39;97368.94;;;25.80;30.91
22755;BME280;11544;42.020;23.094;2022-07-12T12:21:08;97362.03;;;25.87;31.12
22755;BME280;11544;42.020;23.094;2022-07-12T12:23:35;97359.16;;;25.98;31.42
22755;BME280;11544;42.020;23.094;2022-07-12T12:26:19;97360.88;;;25.99;31.27
22755;BME280;11544;42.020;23.094;2022-07-12T12:28:52;97345.03;;;25.88;30.85
22755;BME280;11544;42.020;23.094;2022-07-12T12:31:19;97350.91;;;25.91;30.42
22755;BME280;11544;42.020;23.094;2022-07-12T12:33:51;97349.47;;;25.97;30.27
22755;BME280;11544;42.020;23.094;2022-07-12T12:38:43;97361.97;;;25.59;30.46
22755;BME280;11544;42.020;23.094;2022-07-12T12:41:10;97353.28;;;25.47;30.04
22755;BME280;11544;42.020;23.094;2022-07-12T12:43:35;97349.31;;;25.61;30.54
22755;BME280;11544;42.020;23.094;2022-07-12T12:46:02;97348.13;;;25.73;30.69
22755;BME280;11544;42.020;23.094;2022-07-12T12:48:29;97357.88;;;25.55;30.62
22755;BME280;11544;42.020;23.094;2022-07-12T12:51:09;97355.34;;;25.63;31.59
22755;BME280;11544;42.020;23.094;2022-07-12T12:53:36;97352.03;;;25.79;31.00
22755;BME280;11544;42.020;23.094;2022-07-12T12:56:12;97348.00;;;25.75;30.26
22755;BME280;11544;42.020;23.094;2022-07-12T12:58:39;97350.06;;;25.81;30.39
22755;BME280;11544;42.020;23.094;2022-07-12T13:01:05;97343.91;;;25.81;29.98
22755;BME280;11544;42.020;23.094;2022-07-12T13:03:32;97347.06;;;26.04;30.89
22755;BME280;11544;42.020;23.094;2022-07-12T13:05:58;97347.47;;;26.09;30.35
22755;BME280;11544;42.020;23.094;2022-07-12T13:08:25;97349.75;;;26.04;30.17
22755;BME280;11544;42.020;23.094;2022-07-12T13:10:53;97334.44;;;25.49;30.15